Time;durP1;ratioP1;P1;durP2;ratioP2;P2;SDS_P1;SDS_P2;PMS_P1;PMS_P2;Temp;Humidity;BMP_temperature;BMP_pressure;BME280_temperature;BME280_humidity;BME280_pressure;Samples;Min_cycle;Max_cycle;Signal;HPM_P1;HPM_P2
2021/06/19 00:00:04;;;;;;;6.45;4.20;;;;;;;21.49;31.17;101548.84;5075437;28;19978;-72
2021/06/19 00:02:30;;;;;;;7.35;3.78;;;;;;;21.53;30.95;101549.72;5075359;28;20044;-72
2021/06/19 00:04:55;;;;;;;7.75;3.60;;;;;;;21.53;30.96;101546.94;5057392;28;20482;-72
2021/06/19 00:07:21;;;;;;;15.80;5.30;;;;;;;21.54;31.21;101543.00;5075345;28;20429;-72
2021/06/19 00:09:46;;;;;;;7.97;4.28;;;;;;;21.66;31.22;101546.78;5075245;28;20090;-73
2021/06/19 00:12:15;;;;;;;7.80;4.55;;;;;;;21.65;31.44;101550.72;5057242;28;20071;-73
2021/06/19 00:14:40;;;;;;;10.05;4.45;;;;;;;21.64;31.51;101543.56;5075326;28;20031;-74
2021/06/19 00:17:06;;;;;;;8.10;4.75;;;;;;;21.62;31.65;101541.16;5057282;28;20469;-73
2021/06/19 00:19:32;;;;;;;11.23;5.53;;;;;;;21.63;31.69;101539.19;5075101;28;20551;-74
2021/06/19 00:21:57;;;;;;;12.95;5.93;;;;;;;21.64;31.68;101536.03;5074955;28;20498;-73
2021/06/19 00:24:23;;;;;;;11.88;5.90;;;;;;;21.64;31.82;101533.25;5074967;28;20059;-74
2021/06/19 00:26:50;;;;;;;10.02;5.47;;;;;;;21.65;31.78;101534.84;5074942;28;20039;-74
2021/06/19 00:29:17;;;;;;;11.80;5.35;;;;;;;21.67;31.68;101526.13;5056919;28;20467;-73
2021/06/19 00:31:44;;;;;;;10.25;5.32;;;;;;;21.64;31.67;101526.88;5074870;28;20028;-73
2021/06/19 00:34:12;;;;;;;15.18;6.20;;;;;;;21.56;31.77;101529.53;5075063;28;20383;-73
2021/06/19 00:36:38;;;;;;;11.35;5.93;;;;;;;21.56;31.73;101523.16;5074734;28;20025;-73
2021/06/19 00:39:05;;;;;;;9.82;5.80;;;;;;;21.56;31.79;101525.94;5074702;28;20475;-73
2021/06/19 00:41:31;;;;;;;11.75;5.40;;;;;;;21.51;31.98;101518.69;5074636;28;20111;-74
2021/06/19 00:43:57;;;;;;;9.07;5.32;;;;;;;21.48;31.82;101519.44;5074614;28;20031;-73
2021/06/19 00:46:23;;;;;;;9.73;5.20;;;;;;;21.55;31.74;101518.78;5056574;28;20115;-73
2021/06/19 00:48:48;;;;;;;8.80;5.03;;;;;;;21.47;31.76;101517.03;5073941;28;20029;-73
2021/06/19 00:51:14;;;;;;;9.77;5.93;;;;;;;21.39;31.80;101516.09;5074015;28;20033;-73
2021/06/19 00:53:39;;;;;;;8.25;4.75;;;;;;;21.40;31.83;101514.94;5056126;28;20032;-73
2021/06/19 00:56:06;;;;;;;14.73;5.40;;;;;;;21.40;31.84;101506.59;5074310;28;20036;-73
2021/06/19 00:58:33;;;;;;;13.52;5.95;;;;;;;21.35;32.07;101495.75;5074304;28;20029;-73
2021/06/19 01:00:58;;;;;;;10.15;4.90;;;;;;;21.37;32.00;101498.16;5074568;28;20020;-73
2021/06/19 01:03:24;;;;;;;10.13;4.65;;;;;;;21.28;32.21;101484.50;5056276;28;20035;-73
2021/06/19 01:05:51;;;;;;;6.93;3.50;;;;;;;21.31;31.94;101492.09;5074146;28;20029;-73
2021/06/19 01:08:17;;;;;;;8.80;4.10;;;;;;;21.16;31.58;101490.19;5074156;28;20024;-73
2021/06/19 01:10:42;;;;;;;8.25;4.25;;;;;;;21.05;31.94;101482.44;5074137;28;20028;-73
2021/06/19 01:13:08;;;;;;;5.78;3.97;;;;;;;20.83;31.73;101477.63;5074095;28;20024;-73
2021/06/19 01:15:34;;;;;;;7.35;3.63;;;;;;;20.80;31.62;101478.38;5074156;28;20048;-73
2021/06/19 01:18:00;;;;;;;7.13;3.90;;;;;;;20.69;31.67;101475.34;5073969;28;20391;-73
2021/06/19 01:20:26;;;;;;;10.00;4.15;;;;;;;20.63;31.55;101467.66;5350418;22;20075;-72
2021/06/19 01:22:56;;;;;;;5.70;3.70;;;;;;;20.70;31.63;101473.38;5055971;28;20447;-74
2021/06/19 01:25:27;;;;;;;7.07;4.50;;;;;;;20.64;31.75;101474.84;5073821;28;20023;-73
2021/06/19 01:27:54;;;;;;;7.05;3.92;;;;;;;20.63;31.53;101474.03;5073765;28;20029;-72
2021/06/19 01:30:25;;;;;;;9.07;4.05;;;;;;;20.52;31.70;101474.97;5073751;28;20032;-73
2021/06/19 01:32:52;;;;;;;13.20;5.50;;;;;;;20.60;31.73;101468.41;5073551;28;20117;-72
2021/06/19 01:35:18;;;;;;;13.15;4.47;;;;;;;20.62;31.83;101460.50;5073574;28;20027;-72
2021/06/19 01:37:52;;;;;;;6.75;4.00;;;;;;;20.71;32.06;101469.44;5073806;28;20024;-72
2021/06/19 01:40:20;;;;;;;9.77;4.97;;;;;;;20.76;32.06;101464.38;5055358;28;20031;-72
2021/06/19 01:42:48;;;;;;;10.07;4.18;;;;;;;20.77;31.86;101463.22;5073457;28;20017;-72
2021/06/19 01:45:20;;;;;;;6.78;4.20;;;;;;;20.69;31.92;101467.00;5073349;28;20406;-72
2021/06/19 01:47:46;;;;;;;12.88;5.13;;;;;;;20.73;31.93;101459.56;5073485;28;20432;-72
2021/06/19 01:50:15;;;;;;;8.02;4.60;;;;;;;20.77;32.06;101463.22;5073306;28;20025;-72
2021/06/19 01:52:41;;;;;;;6.47;4.05;;;;;;;20.81;31.98;101459.72;5073300;28;20020;-72
2021/06/19 01:55:08;;;;;;;8.55;4.97;;;;;;;20.83;32.14;101457.38;5073505;28;20032;-73
2021/06/19 01:57:37;;;;;;;15.23;6.07;;;;;;;20.87;32.17;101459.06;5073229;28;20390;-71
2021/06/19 02:00:06;;;;;;;8.27;4.75;;;;;;;20.85;32.44;101452.25;5073358;28;20390;-70
2021/06/19 02:02:33;;;;;;;6.13;3.67;;;;;;;20.85;32.35;101463.38;5073105;28;20016;-71
2021/06/19 02:04:59;;;;;;;6.28;4.15;;;;;;;20.86;32.21;101471.34;5073064;28;20052;-74
2021/06/19 02:07:25;;;;;;;9.73;4.75;;;;;;;20.83;32.38;101466.50;5073017;28;20092;-71
2021/06/19 02:09:50;;;;;;;8.05;4.00;;;;;;;20.82;32.40;101467.69;5072953;28;20021;-74
2021/06/19 02:12:17;;;;;;;12.98;4.75;;;;;;;20.81;32.39;101479.97;5072991;28;20031;-70
2021/06/19 02:14:43;;;;;;;5.10;3.47;;;;;;;20.75;32.39;101479.44;5072778;28;20021;-70
2021/06/19 02:17:09;;;;;;;6.18;4.25;;;;;;;20.71;32.49;101470.25;5072862;28;20017;-71
2021/06/19 02:19:35;;;;;;;8.85;4.03;;;;;;;20.65;32.55;101476.44;5072615;28;20025;-72
2021/06/19 02:22:01;;;;;;;7.13;3.78;;;;;;;20.62;32.55;101477.16;5054896;28;20096;-72
2021/06/19 02:24:27;;;;;;;10.05;4.32;;;;;;;20.48;32.74;101472.13;5072794;28;20020;-73
2021/06/19 02:27:08;;;;;;;7.78;3.88;;;;;;;20.43;32.86;101478.72;5072741;28;20020;-72
2021/06/19 02:29:33;;;;;;;6.78;3.90;;;;;;;20.47;32.99;101476.84;5072817;28;20040;-73
2021/06/19 02:31:59;;;;;;;7.88;4.40;;;;;;;20.49;33.06;101473.72;5072712;28;20020;-72
2021/06/19 02:34:24;;;;;;;7.38;3.67;;;;;;;20.48;33.02;101470.16;5070378;28;20097;-72
2021/06/19 02:36:50;;;;;;;5.63;3.50;;;;;;;20.44;33.16;101480.34;5052914;28;20025;-73
2021/06/19 02:39:15;;;;;;;8.27;3.90;;;;;;;20.49;33.06;101468.97;5052487;28;20021;-72
2021/06/19 02:41:41;;;;;;;10.35;4.13;;;;;;;20.49;33.18;101465.41;5052471;28;20021;-72
2021/06/19 02:44:06;;;;;;;9.80;3.30;;;;;;;20.50;33.20;101464.22;5034580;28;20029;-73
2021/06/19 02:46:32;;;;;;;5.93;3.78;;;;;;;20.59;33.02;101472.34;5052473;28;20017;-73
2021/06/19 02:48:58;;;;;;;7.90;4.03;;;;;;;20.55;33.19;101471.44;5052465;28;20083;-72
2021/06/19 02:51:23;;;;;;;7.28;3.60;;;;;;;20.54;33.08;101480.94;5034583;28;20430;-72
2021/06/19 02:53:49;;;;;;;7.82;4.10;;;;;;;20.48;33.10;101472.94;5034538;28;20055;-73
2021/06/19 02:56:14;;;;;;;8.63;3.90;;;;;;;20.47;33.11;101465.75;5052318;28;20028;-72
2021/06/19 02:58:40;;;;;;;6.68;3.92;;;;;;;20.49;33.23;101462.63;5034193;28;20025;-72
2021/06/19 03:01:08;;;;;;;6.93;3.58;;;;;;;20.43;33.33;101459.28;5052395;28;20538;-72
2021/06/19 03:03:34;;;;;;;8.48;4.22;;;;;;;20.47;33.32;101453.84;5052364;28;20063;-72
2021/06/19 03:06:01;;;;;;;7.00;3.67;;;;;;;20.50;33.44;101447.56;5052368;28;20028;-72
2021/06/19 03:08:29;;;;;;;6.03;4.20;;;;;;;20.45;33.58;101445.06;5052276;28;20111;-72
2021/06/19 03:10:55;;;;;;;5.60;3.13;;;;;;;20.52;33.38;101455.53;5052230;28;20040;-72
2021/06/19 03:13:21;;;;;;;5.85;3.70;;;;;;;20.53;33.48;101441.28;5054306;28;20037;-72
2021/06/19 03:15:46;;;;;;;6.40;3.72;;;;;;;20.50;33.51;101437.28;5056288;28;20075;-72
2021/06/19 03:18:12;;;;;;;12.25;4.03;;;;;;;20.46;33.45;101441.94;5056318;28;20037;-74
2021/06/19 03:20:38;;;;;;;7.65;3.83;;;;;;;20.52;33.49;101433.31;5056044;28;20060;-72
2021/06/19 03:23:05;;;;;;;9.18;3.58;;;;;;;20.52;33.68;101436.91;5056242;28;20375;-72
2021/06/19 03:25:34;;;;;;;5.05;3.25;;;;;;;20.53;33.52;101443.25;5056111;28;20021;-72
2021/06/19 03:28:03;;;;;;;8.55;3.78;;;;;;;20.53;33.30;101437.69;5056127;28;20035;-72
2021/06/19 03:30:31;;;;;;;6.68;3.15;;;;;;;20.45;33.55;101432.00;5038159;28;20028;-72
2021/06/19 03:32:56;;;;;;;8.23;3.42;;;;;;;20.49;33.73;101432.88;5056201;28;20082;-72
2021/06/19 03:35:22;;;;;;;7.15;3.45;;;;;;;20.50;33.43;101434.50;5055917;28;20471;-73
2021/06/19 03:37:49;;;;;;;6.95;3.97;;;;;;;20.46;33.32;101428.03;5055911;28;20021;-73
2021/06/19 03:40:16;;;;;;;8.88;4.05;;;;;;;20.25;33.61;101430.31;5055829;28;20068;-72
2021/06/19 03:42:42;;;;;;;11.07;4.50;;;;;;;20.08;33.96;101422.41;5056032;28;20489;-72
2021/06/19 03:45:09;;;;;;;14.82;4.53;;;;;;;20.04;34.10;101432.63;5055664;28;20132;-72
2021/06/19 03:47:37;;;;;;;5.57;3.50;;;;;;;20.14;33.90;101429.28;5055686;28;20371;-72
2021/06/19 03:50:05;;;;;;;7.05;4.55;;;;;;;20.09;33.96;101421.22;5055703;28;20104;-72
2021/06/19 03:52:31;;;;;;;10.27;4.28;;;;;;;20.10;33.94;101429.22;5055574;28;20037;-72
2021/06/19 03:54:56;;;;;;;8.65;4.45;;;;;;;20.37;33.44;101421.06;5055474;28;20040;-72
2021/06/19 03:57:31;;;;;;;7.20;4.35;;;;;;;20.50;33.27;101423.38;5055470;28;20049;-72
2021/06/19 03:59:57;;;;;;;7.85;4.50;;;;;;;20.54;33.23;101420.69;5055478;28;20029;-72
2021/06/19 04:02:23;;;;;;;9.35;4.45;;;;;;;20.59;33.23;101417.63;5055432;28;20132;-72
2021/06/19 04:04:50;;;;;;;6.65;5.00;;;;;;;20.62;33.15;101433.53;5055436;28;20036;-72
2021/06/19 04:07:17;;;;;;;8.15;4.18;;;;;;;20.69;33.33;101435.66;5037482;28;20037;-72
2021/06/19 04:09:45;;;;;;;11.23;4.65;;;;;;;20.69;33.23;101430.13;5037477;28;20025;-72
2021/06/19 04:12:11;;;;;;;7.20;3.72;;;;;;;20.62;33.22;101432.75;5055258;28;20057;-72
2021/06/19 04:14:37;;;;;;;6.10;3.60;;;;;;;20.68;33.15;101425.72;5055172;28;20061;-72
2021/06/19 04:17:03;;;;;;;9.77;4.63;;;;;;;20.64;33.34;101417.34;5055112;28;20064;-72
2021/06/19 04:19:29;;;;;;;8.23;4.28;;;;;;;20.70;33.22;101417.84;5054967;28;20037;-73
2021/06/19 04:21:54;;;;;;;5.75;3.78;;;;;;;20.78;33.12;101417.63;5055120;28;20072;-72
2021/06/19 04:24:20;;;;;;;8.88;5.15;;;;;;;20.80;33.10;101414.47;5055249;28;20051;-72
2021/06/19 04:26:46;;;;;;;8.93;4.65;;;;;;;20.83;33.22;101419.28;5054994;28;20103;-72
2021/06/19 04:29:11;;;;;;;11.23;4.32;;;;;;;20.87;33.15;101414.63;5054861;28;20025;-72
2021/06/19 04:31:37;;;;;;;8.63;4.25;;;;;;;20.97;33.11;101416.81;5054867;28;20025;-72
2021/06/19 04:34:02;;;;;;;8.70;4.40;;;;;;;21.03;33.15;101406.19;5036835;28;20036;-72
2021/06/19 04:36:28;;;;;;;10.73;4.10;;;;;;;21.18;33.05;101415.59;5036911;28;20067;-72
2021/06/19 04:38:54;;;;;;;9.27;5.88;;;;;;;21.17;33.15;101414.00;5054802;28;20029;-73
2021/06/19 04:41:25;;;;;;;5.40;3.90;;;;;;;21.30;33.08;101412.66;5054757;28;20025;-74
2021/06/19 04:46:16;;;;;;;6.70;3.95;;;;;;;21.46;32.99;101420.88;5054606;28;20112;-72
2021/06/19 04:48:42;;;;;;;8.05;5.10;;;;;;;21.53;32.96;101413.47;5036743;28;20036;-72
2021/06/19 04:51:08;;;;;;;7.50;4.95;;;;;;;21.63;33.10;101409.28;5036731;28;20483;-72
2021/06/19 04:53:33;;;;;;;8.93;5.53;;;;;;;21.67;33.10;101412.09;5054507;28;20048;-74
2021/06/19 04:56:03;;;;;;;8.43;4.35;;;;;;;21.71;33.19;101404.63;5054328;28;20036;-72
2021/06/19 04:58:28;;;;;;;9.85;4.45;;;;;;;21.78;33.03;101405.56;5054451;28;20025;-73
2021/06/19 05:00:54;;;;;;;10.55;4.53;;;;;;;21.84;33.10;101403.28;5054352;28;20025;-75
2021/06/19 05:03:22;;;;;;;7.97;4.38;;;;;;;21.88;33.45;101395.75;5054311;28;20052;-73
2021/06/19 05:05:50;;;;;;;7.88;4.07;;;;;;;22.03;33.00;101400.38;5036468;28;20360;-72
2021/06/19 05:08:15;;;;;;;9.65;4.85;;;;;;;22.05;33.22;101392.44;5054184;28;20024;-72
2021/06/19 05:10:41;;;;;;;10.00;4.28;;;;;;;22.15;33.08;101402.97;5054189;28;20091;-73
2021/06/19 05:13:06;;;;;;;6.10;4.28;;;;;;;22.15;33.18;101405.75;5054135;28;20017;-72
2021/06/19 05:15:32;;;;;;;10.52;4.40;;;;;;;22.21;33.14;101391.50;5036118;28;20541;-73
2021/06/19 05:17:58;;;;;;;13.43;5.57;;;;;;;22.08;33.49;101388.94;5054050;28;20356;-72
2021/06/19 05:20:27;;;;;;;11.13;5.15;;;;;;;22.20;33.38;101395.44;5053806;28;20511;-72
2021/06/19 05:22:53;;;;;;;11.57;4.72;;;;;;;22.29;33.55;101382.88;5053889;28;20040;-73
2021/06/19 05:25:18;;;;;;;7.10;4.45;;;;;;;22.33;33.47;101386.50;5053871;28;20025;-72
2021/06/19 05:27:44;;;;;;;10.00;4.82;;;;;;;22.41;33.57;101384.63;5053801;28;20177;-72
2021/06/19 05:30:11;;;;;;;9.35;4.97;;;;;;;22.39;33.72;101384.19;5053838;28;20035;-72
2021/06/19 05:32:37;;;;;;;9.18;3.92;;;;;;;22.49;33.52;101382.72;5052822;28;20031;-73
2021/06/19 05:35:04;;;;;;;10.30;4.38;;;;;;;22.52;33.66;101374.44;5053184;28;20379;-72
2021/06/19 05:37:29;;;;;;;13.77;4.93;;;;;;;22.46;33.76;101367.59;5053534;28;20021;-72
2021/06/19 05:39:55;;;;;;;13.20;4.68;;;;;;;22.60;33.69;101376.13;5035708;28;20029;-72
2021/06/19 05:42:21;;;;;;;10.80;4.78;;;;;;;22.66;33.54;101370.97;5053528;28;20475;-72
2021/06/19 05:44:47;;;;;;;10.20;4.10;;;;;;;22.62;33.92;101376.53;5053505;28;20025;-72
2021/06/19 05:47:13;;;;;;;7.97;4.82;;;;;;;22.70;33.81;101378.22;5053441;28;20025;-72
2021/06/19 05:49:38;;;;;;;12.20;4.55;;;;;;;22.74;33.71;101371.88;5053378;28;20035;-72
2021/06/19 05:52:05;;;;;;;17.38;6.03;;;;;;;22.70;34.12;101367.06;5053335;28;20511;-73
2021/06/19 05:54:35;;;;;;;10.02;4.70;;;;;;;22.80;33.75;101376.72;5053209;28;20029;-72
2021/06/19 05:57:10;;;;;;;11.88;4.72;;;;;;;22.86;34.13;101366.06;5035396;28;20564;-73
2021/06/19 05:59:37;;;;;;;15.15;5.28;;;;;;;22.90;34.02;101373.31;5053311;28;20021;-72
2021/06/19 06:02:04;;;;;;;6.78;4.30;;;;;;;23.03;34.10;101367.44;5053142;28;20095;-73
2021/06/19 06:04:30;;;;;;;14.93;5.18;;;;;;;22.91;34.21;101363.75;5053136;28;20021;-72
2021/06/19 06:06:56;;;;;;;8.60;4.70;;;;;;;23.02;34.35;101361.06;5052977;28;20025;-72
2021/06/19 06:09:22;;;;;;;8.38;4.03;;;;;;;23.11;34.30;101364.34;5053000;28;20025;-75
2021/06/19 06:11:47;;;;;;;13.88;4.78;;;;;;;23.13;34.27;101373.13;5052997;28;20099;-72
2021/06/19 06:14:13;;;;;;;8.68;3.83;;;;;;;23.17;34.44;101370.38;5052706;28;20078;-72
2021/06/19 06:16:39;;;;;;;9.57;4.60;;;;;;;23.26;34.48;101368.84;5053167;28;20022;-72
2021/06/19 06:19:05;;;;;;;9.98;4.70;;;;;;;23.29;34.47;101360.94;5052824;28;20029;-72
2021/06/19 06:21:31;;;;;;;10.55;5.00;;;;;;;23.20;34.94;101358.44;5052730;28;20118;-72
2021/06/19 06:23:56;;;;;;;8.40;4.88;;;;;;;23.36;34.53;101369.34;5052781;28;20017;-72
2021/06/19 06:26:23;;;;;;;8.95;4.80;;;;;;;23.41;34.86;101361.41;5052911;28;20108;-74
2021/06/19 06:28:48;;;;;;;9.98;4.72;;;;;;;23.49;34.69;101354.72;5052714;28;20025;-73
2021/06/19 06:31:14;;;;;;;15.25;4.95;;;;;;;23.59;34.96;101361.56;5034719;28;20040;-73
2021/06/19 06:33:40;;;;;;;11.88;4.32;;;;;;;23.81;34.72;101354.19;5052678;28;20475;-72
2021/06/19 06:36:06;;;;;;;8.50;4.40;;;;;;;23.92;34.58;101352.25;5052612;28;20132;-72
2021/06/19 06:38:31;;;;;;;19.70;5.28;;;;;;;23.96;34.65;101357.88;5052662;28;20390;-73
2021/06/19 06:40:57;;;;;;;14.02;4.43;;;;;;;24.12;34.51;101358.38;5052607;28;20095;-73
2021/06/19 06:43:23;;;;;;;7.22;4.40;;;;;;;24.22;34.38;101349.22;5052571;28;20021;-72
2021/06/19 06:45:49;;;;;;;9.73;3.70;;;;;;;24.37;34.21;101343.75;5052499;28;20096;-72
2021/06/19 06:48:15;;;;;;;15.75;3.55;;;;;;;24.47;33.85;101345.75;5051577;28;20052;-72
2021/06/19 06:50:41;;;;;;;16.85;4.55;;;;;;;24.53;34.00;101355.38;5052493;28;20082;-72
2021/06/19 06:53:06;;;;;;;19.65;4.40;;;;;;;24.71;33.89;101359.03;5052504;28;20111;-72
2021/06/19 06:55:32;;;;;;;16.30;4.15;;;;;;;24.80;33.83;101361.47;5052352;28;20509;-72
2021/06/19 06:57:58;;;;;;;10.02;4.50;;;;;;;24.72;33.84;101365.44;5052467;28;20033;-72
2021/06/19 07:00:24;;;;;;;18.13;4.70;;;;;;;25.09;33.40;101356.72;5052352;28;20056;-72
2021/06/19 07:02:51;;;;;;;8.70;2.95;;;;;;;25.22;33.40;101352.34;5052421;28;20263;-72
2021/06/19 07:05:17;;;;;;;8.15;3.92;;;;;;;25.30;33.04;101358.75;5052299;28;20037;-72
2021/06/19 07:07:43;;;;;;;8.10;3.45;;;;;;;25.37;33.12;101359.53;5052575;28;20025;-73
2021/06/19 07:10:11;;;;;;;8.40;3.63;;;;;;;25.25;33.08;101361.97;5052285;28;20028;-73
2021/06/19 07:12:41;;;;;;;12.32;3.40;;;;;;;25.29;32.94;101368.34;5052523;28;20044;-73
2021/06/19 07:15:07;;;;;;;;;;;;;;;25.38;32.72;101377.94;5052887;28;20506;-73
2021/06/19 07:17:33;;;;;;;16.88;4.40;;;;;;;25.39;32.47;101371.16;5052179;28;19912;-72
2021/06/19 07:19:58;;;;;;;11.38;2.85;;;;;;;25.56;31.84;101375.16;5052016;28;20063;-72
2021/06/19 07:22:24;;;;;;;9.00;3.65;;;;;;;25.37;32.10;101372.72;5052411;28;20036;-73
2021/06/19 07:24:49;;;;;;;6.80;2.60;;;;;;;25.58;31.51;101372.75;5052172;28;20025;-72
2021/06/19 07:27:15;;;;;;;22.38;4.75;;;;;;;25.65;31.51;101367.13;5052366;28;20039;-73
2021/06/19 07:29:41;;;;;;;9.20;2.75;;;;;;;25.70;31.02;101369.53;5052066;28;20017;-73
2021/06/19 07:32:07;;;;;;;12.52;2.72;;;;;;;25.62;31.29;101370.75;5052066;28;20056;-73
2021/06/19 07:34:33;;;;;;;5.60;2.45;;;;;;;25.63;31.12;101357.56;5052057;28;20041;-73
2021/06/19 07:36:59;;;;;;;9.30;3.00;;;;;;;25.63;31.27;101357.56;5052330;28;20413;-72
2021/06/19 07:39:25;;;;;;;9.02;3.35;;;;;;;25.76;31.41;101355.94;5051978;28;20087;-72
2021/06/19 07:41:54;;;;;;;8.98;3.05;;;;;;;25.76;31.62;101366.34;5051631;28;20075;-73
2021/06/19 07:44:20;;;;;;;8.63;2.53;;;;;;;25.94;30.97;101365.13;5034127;28;20032;-73
2021/06/19 07:46:50;;;;;;;7.32;2.70;;;;;;;26.04;31.33;101362.69;5051942;28;20070;-73
2021/06/19 07:49:17;;;;;;;11.32;3.20;;;;;;;26.06;31.14;101363.09;5051987;28;20406;-73
2021/06/19 07:51:43;;;;;;;7.53;2.90;;;;;;;26.08;31.23;101369.09;5051899;28;20499;-73
2021/06/19 07:54:09;;;;;;;8.85;3.10;;;;;;;26.16;31.12;101362.28;5051833;28;20064;-73
2021/06/19 07:56:34;;;;;;;8.18;3.10;;;;;;;26.16;31.32;101368.69;5051875;28;20043;-73
2021/06/19 07:59:00;;;;;;;11.32;3.60;;;;;;;26.24;30.89;101361.84;5053094;28;20471;-73
2021/06/19 08:01:26;;;;;;;14.88;3.05;;;;;;;26.11;30.92;101357.09;5055537;28;20033;-72
2021/06/19 08:03:51;;;;;;;8.55;3.60;;;;;;;26.39;30.83;101359.81;5055452;28;20064;-73
2021/06/19 08:06:17;;;;;;;13.10;3.70;;;;;;;26.36;30.67;101360.59;5037797;28;20097;-73
2021/06/19 08:08:43;;;;;;;6.68;2.25;;;;;;;26.51;30.51;101358.56;5055362;28;20159;-73
2021/06/19 08:11:08;;;;;;;16.38;4.20;;;;;;;26.57;30.80;101359.72;5055552;28;20033;-73
2021/06/19 08:13:34;;;;;;;4.93;2.30;;;;;;;26.70;30.18;101362.88;5055261;28;20036;-73
2021/06/19 08:16:02;;;;;;;10.77;3.30;;;;;;;26.75;30.35;101354.00;5055135;28;20072;-73
2021/06/19 08:18:28;;;;;;;6.85;2.53;;;;;;;26.94;30.18;101355.50;5055168;28;20025;-73
2021/06/19 08:20:53;;;;;;;17.08;3.75;;;;;;;26.75;30.35;101354.84;5047007;28;20544;-75
2021/06/19 08:23:19;;;;;;;4.10;2.38;;;;;;;26.95;30.22;101365.53;5055350;28;20135;-73
2021/06/19 08:25:44;;;;;;;7.90;3.42;;;;;;;26.85;30.45;101357.97;5055084;28;20491;-73
2021/06/19 08:28:10;;;;;;;9.07;3.15;;;;;;;26.85;30.50;101363.59;5053884;28;20021;-72
2021/06/19 08:30:36;;;;;;;9.55;3.08;;;;;;;26.99;30.47;101363.50;5055005;28;20021;-72
2021/06/19 08:33:01;;;;;;;13.07;2.60;;;;;;;26.81;30.95;101372.00;5053681;28;20036;-73
2021/06/19 08:35:27;;;;;;;5.72;2.33;;;;;;;26.87;30.38;101364.78;5055398;28;20028;-73
2021/06/19 08:37:53;;;;;;;5.30;2.67;;;;;;;27.00;30.01;101365.91;5055090;28;20079;-73
2021/06/19 08:40:19;;;;;;;6.65;1.98;;;;;;;26.88;30.08;101360.75;5054845;28;20029;-73
2021/06/19 08:42:45;;;;;;;9.88;3.10;;;;;;;26.91;30.16;101364.75;5053320;28;20036;-73
2021/06/19 08:45:10;;;;;;;10.25;2.55;;;;;;;26.96;30.33;101358.69;5054674;28;20036;-73
2021/06/19 08:47:36;;;;;;;6.70;3.10;;;;;;;26.83;30.18;101367.59;5054703;28;20433;-73
2021/06/19 08:50:11;;;;;;;5.75;2.80;;;;;;;27.13;29.76;101355.03;5053334;28;20132;-73
2021/06/19 08:52:40;;;;;;;8.75;2.53;;;;;;;27.16;29.96;101350.59;5054589;28;20028;-73
2021/06/19 08:55:11;;;;;;;17.70;3.83;;;;;;;27.14;30.06;101348.19;5054423;28;20037;-74
2021/06/19 08:57:36;;;;;;;6.63;3.00;;;;;;;27.13;29.85;101357.84;5054512;28;20492;-75
2021/06/19 09:00:06;;;;;;;9.55;3.10;;;;;;;27.05;29.83;101359.88;5054394;28;20107;-73
2021/06/19 09:02:32;;;;;;;8.43;2.83;;;;;;;27.09;29.47;101359.84;5053055;28;20388;-73
2021/06/19 09:05:08;;;;;;;9.65;2.72;;;;;;;27.25;29.72;101351.72;5053052;28;20033;-73
2021/06/19 09:07:34;;;;;;;6.15;2.35;;;;;;;27.39;29.61;101348.00;5049872;28;20037;-73
2021/06/19 09:10:24;;;;;;;5.88;2.75;;;;;;;27.16;29.81;101342.19;5053632;28;20021;-73
2021/06/19 09:13:02;;;;;;;5.18;2.83;;;;;;;27.37;29.44;101342.81;5054172;28;20062;-73
2021/06/19 09:15:31;;;;;;;9.38;2.40;;;;;;;27.50;29.43;101339.47;5054128;28;20115;-73
2021/06/19 09:18:17;;;;;;;8.55;2.78;;;;;;;27.65;29.42;101332.50;5054079;28;20029;-73
2021/06/19 09:21:02;;;;;;;4.65;2.20;;;;;;;27.43;29.31;101325.50;5044153;28;20629;-73
2021/06/19 09:23:36;;;;;;;8.52;2.65;;;;;;;27.37;29.67;101330.78;5053992;28;20032;-73
2021/06/19 09:26:10;;;;;;;7.28;2.88;;;;;;;27.49;29.39;101330.25;5053929;28;20025;-73
2021/06/19 09:28:54;;;;;;;9.43;2.60;;;;;;;27.49;29.38;101324.63;5053877;28;20467;-73
2021/06/19 09:31:37;;;;;;;7.97;2.50;;;;;;;27.67;28.91;101310.47;5053772;28;20029;-73
2021/06/19 09:34:06;;;;;;;10.57;2.60;;;;;;;27.73;28.77;101317.22;5054350;28;20029;-74
2021/06/19 09:36:44;;;;;;;5.47;2.40;;;;;;;27.43;28.88;101312.25;5053581;28;20098;-74
2021/06/19 09:39:14;;;;;;;9.57;2.50;;;;;;;27.82;28.52;101303.50;5053689;28;20045;-75
2021/06/19 09:41:45;;;;;;;5.57;2.75;;;;;;;27.83;28.38;101302.28;5053641;28;20103;-73
2021/06/19 09:44:11;;;;;;;9.48;2.60;;;;;;;28.03;28.49;101302.44;5053499;28;20036;-73
2021/06/19 09:46:38;;;;;;;17.23;3.50;;;;;;;28.15;28.35;101304.69;5053536;28;20075;-73
2021/06/19 09:49:17;;;;;;;8.30;2.75;;;;;;;27.90;28.84;101307.03;5053403;28;20045;-73
2021/06/19 09:51:48;;;;;;;8.77;2.70;;;;;;;28.26;28.09;101300.94;5053425;28;20056;-73
2021/06/19 09:54:14;;;;;;;8.32;2.50;;;;;;;28.46;28.04;101304.72;5053229;28;20266;-74
2021/06/19 09:56:48;;;;;;;10.15;2.90;;;;;;;28.16;28.57;101295.06;5053404;28;20107;-73
2021/06/19 09:59:25;;;;;;;7.40;1.85;;;;;;;28.24;27.68;101286.53;5053190;28;20032;-73
2021/06/19 10:01:51;;;;;;;8.00;2.55;;;;;;;28.62;27.68;101276.00;5053291;28;20541;-73
2021/06/19 10:04:22;;;;;;;14.43;3.63;;;;;;;28.76;27.97;101275.78;5035267;28;20056;-73
2021/06/19 10:06:48;;;;;;;7.80;2.17;;;;;;;28.70;27.69;101261.41;5052836;28;20112;-73
2021/06/19 10:09:14;;;;;;;7.25;2.65;;;;;;;28.83;27.72;101258.00;5035158;28;20548;-73
2021/06/19 10:11:42;;;;;;;21.95;4.95;;;;;;;28.99;27.34;101256.16;5053081;28;20021;-73
2021/06/19 10:14:14;;;;;;;9.55;2.78;;;;;;;28.62;27.60;101256.31;5052998;28;20105;-73
2021/06/19 10:16:41;;;;;;;11.20;2.63;;;;;;;28.58;27.63;101247.94;5053323;28;20029;-73
2021/06/19 10:19:09;;;;;;;5.75;2.15;;;;;;;28.40;27.82;101250.22;5052926;28;20025;-73
2021/06/19 10:21:36;;;;;;;7.35;2.78;;;;;;;28.60;27.76;101258.75;5052566;28;20565;-73
2021/06/19 10:24:07;;;;;;;7.15;2.75;;;;;;;28.31;28.05;101259.16;5052785;28;20063;-73
2021/06/19 10:26:35;;;;;;;14.48;3.70;;;;;;;28.49;27.77;101258.94;5052747;28;20028;-73
2021/06/19 10:29:04;;;;;;;6.05;2.47;;;;;;;28.31;28.07;101267.59;5052816;28;20024;-73
2021/06/19 10:31:40;;;;;;;5.40;2.47;;;;;;;27.95;28.43;101263.63;5052733;28;20072;-73
2021/06/19 10:34:19;;;;;;;11.98;2.60;;;;;;;28.26;28.38;101258.81;5052520;28;20095;-73
2021/06/19 10:36:45;;;;;;;5.85;1.98;;;;;;;28.46;28.12;101257.75;5052782;28;20395;-74
2021/06/19 10:39:11;;;;;;;8.05;2.30;;;;;;;28.28;28.18;101253.59;5052594;28;20021;-73
2021/06/19 10:41:51;;;;;;;7.85;2.15;;;;;;;28.40;27.62;101264.25;5052543;28;20024;-73
2021/06/19 10:44:50;;;;;;;12.20;3.45;;;;;;;28.33;28.06;101250.31;5052630;28;20497;-73
2021/06/19 10:47:25;;;;;;;3.58;2.15;;;;;;;28.18;27.34;101247.66;5044595;28;20037;-75
2021/06/19 10:49:51;;;;;;;7.22;2.00;;;;;;;28.43;27.33;101235.31;5052642;28;20079;-73
2021/06/19 10:52:40;;;;;;;9.23;2.55;;;;;;;28.56;27.12;101235.53;5052447;28;20032;-73
2021/06/19 10:55:08;;;;;;;5.10;2.00;;;;;;;29.04;26.74;101232.38;5052355;28;20032;-73
2021/06/19 10:57:48;;;;;;;6.18;2.10;;;;;;;28.78;26.86;101222.72;5052429;28;20025;-73
2021/06/19 11:00:26;;;;;;;7.97;2.42;;;;;;;29.17;26.32;101218.47;5052433;28;20168;-73
2021/06/19 11:02:54;;;;;;;5.93;2.13;;;;;;;29.07;26.53;101220.25;5052399;28;20032;-73
2021/06/19 11:05:44;;;;;;;11.27;2.72;;;;;;;28.97;26.42;101224.06;5052310;28;20029;-74
2021/06/19 11:08:20;;;;;;;4.85;2.70;;;;;;;29.27;25.89;101226.72;5052384;28;20617;-73
2021/06/19 11:10:49;;;;;;;5.60;2.15;;;;;;;29.23;26.00;101228.78;5052381;28;20029;-73
2021/06/19 11:13:34;;;;;;;6.88;2.28;;;;;;;29.03;26.44;101222.34;5052255;28;20051;-73
2021/06/19 11:16:02;;;;;;;4.60;1.85;;;;;;;29.11;26.32;101223.00;5052189;28;20119;-73
2021/06/19 11:18:50;;;;;;;7.05;2.13;;;;;;;28.61;27.03;101224.59;5034367;28;20390;-73
2021/06/19 11:21:18;;;;;;;6.13;1.85;;;;;;;29.05;26.44;101225.50;5052005;28;20043;-73
2021/06/19 11:24:02;;;;;;;4.05;1.85;;;;;;;29.00;26.57;101223.19;5052219;28;20025;-73
2021/06/19 11:26:47;;;;;;;7.28;2.25;;;;;;;29.13;26.10;101221.34;5052212;28;20108;-73